sensor_id;sensor_type;location;lat;lon;timestamp;pressure;altitude;pressure_sealevel;temperature;humidity
51333;BME280;37417;48.118;11.734;2023-05-10T00:00:11;94985.13;;;11.67;nan
51333;BME280;37417;48.118;11.734;2023-05-10T00:02:57;94983.72;;;11.64;nan
51333;BME280;37417;48.118;11.734;2023-05-10T00:05:43;94981.56;;;11.61;nan
51333;BME280;37417;48.118;11.734;2023-05-10T00:08:28;94988.38;;;11.62;nan
51333;BME280;37417;48.118;11.734;2023-05-10T00:11:14;94983.72;;;11.64;nan
51333;BME280;37417;48.118;11.734;2023-05-10T00:14:00;94988.94;;;11.64;nan
51333;BME280;37417;48.118;11.734;2023-05-10T00:16:45;94989.34;;;11.68;nan
51333;BME280;37417;48.118;11.734;2023-05-10T00:19:31;94990.53;;;11.72;nan
51333;BME280;37417;48.118;11.734;2023-05-10T00:22:17;94985.31;;;11.65;nan
51333;BME280;37417;48.118;11.734;2023-05-10T00:25:03;94983.38;;;11.61;nan
51333;BME280;37417;48.118;11.734;2023-05-10T00:27:49;94987.56;;;11.62;nan
51333;BME280;37417;48.118;11.734;2023-05-10T00:30:35;94987.34;;;11.63;nan
51333;BME280;37417;48.118;11.734;2023-05-10T00:33:20;94985.75;;;11.62;nan
51333;BME280;37417;48.118;11.734;2023-05-10T00:36:06;94984.75;;;11.63;nan
51333;BME280;37417;48.118;11.734;2023-05-10T00:38:52;94986.38;;;11.58;nan
51333;BME280;37417;48.118;11.734;2023-05-10T00:41:38;94981.97;;;11.58;nan
51333;BME280;37417;48.118;11.734;2023-05-10T00:44:24;94982.34;;;11.62;nan
51333;BME280;37417;48.118;11.734;2023-05-10T00:47:09;94986.34;;;11.64;nan
51333;BME280;37417;48.118;11.734;2023-05-10T00:49:56;94980.38;;;11.57;nan
51333;BME280;37417;48.118;11.734;2023-05-10T00:52:42;94976.38;;;11.55;nan
51333;BME280;37417;48.118;11.734;2023-05-10T00:55:28;94977.59;;;11.52;nan
51333;BME280;37417;48.118;11.734;2023-05-10T00:58:14;94980.00;;;11.54;nan
51333;BME280;37417;48.118;11.734;2023-05-10T01:01:00;94977.41;;;11.54;nan
51333;BME280;37417;48.118;11.734;2023-05-10T01:03:46;94981.78;;;11.60;nan
51333;BME280;37417;48.118;11.734;2023-05-10T01:06:32;94986.59;;;11.56;nan
51333;BME280;37417;48.118;11.734;2023-05-10T01:09:19;94980.59;;;11.56;nan
51333;BME280;37417;48.118;11.734;2023-05-10T01:12:05;94974.56;;;11.55;nan
51333;BME280;37417;48.118;11.734;2023-05-10T01:14:52;94974.97;;;11.52;nan
51333;BME280;37417;48.118;11.734;2023-05-10T01:17:40;94986.56;;;11.63;nan
51333;BME280;37417;48.118;11.734;2023-05-10T01:20:32;94987.97;;;11.59;nan
51333;BME280;37417;48.118;11.734;2023-05-10T01:26:45;94982.81;;;11.52;nan
51333;BME280;37417;48.118;11.734;2023-05-10T01:30:08;94971.78;;;11.50;nan
51333;BME280;37417;48.118;11.734;2023-05-10T01:33:11;94979.44;;;11.45;nan
51333;BME280;37417;48.118;11.734;2023-05-10T01:36:16;94979.44;;;11.45;nan
51333;BME280;37417;48.118;11.734;2023-05-10T01:42:17;94977.50;;;11.41;nan
51333;BME280;37417;48.118;11.734;2023-05-10T01:45:17;94982.50;;;11.42;nan
51333;BME280;37417;48.118;11.734;2023-05-10T01:48:11;94975.88;;;11.39;nan
51333;BME280;37417;48.118;11.734;2023-05-10T01:50:59;94979.50;;;11.38;nan
51333;BME280;37417;48.118;11.734;2023-05-10T01:53:46;94974.50;;;11.37;nan
51333;BME280;37417;48.118;11.734;2023-05-10T01:56:34;94975.50;;;11.36;nan
51333;BME280;37417;48.118;11.734;2023-05-10T01:59:21;94981.97;;;11.33;nan
51333;BME280;37417;48.118;11.734;2023-05-10T02:02:08;94980.94;;;11.34;nan
51333;BME280;37417;48.118;11.734;2023-05-10T02:04:57;94988.56;;;11.36;nan
51333;BME280;37417;48.118;11.734;2023-05-10T02:07:44;94999.41;;;11.33;nan
51333;BME280;37417;48.118;11.734;2023-05-10T02:10:32;94982.81;;;11.27;nan
51333;BME280;37417;48.118;11.734;2023-05-10T02:13:19;94988.03;;;11.27;nan
51333;BME280;37417;48.118;11.734;2023-05-10T02:16:07;94980.59;;;11.24;nan
51333;BME280;37417;48.118;11.734;2023-05-10T02:18:53;94986.41;;;11.26;nan
51333;BME280;37417;48.118;11.734;2023-05-10T02:21:41;94989.19;;;11.31;nan
51333;BME280;37417;48.118;11.734;2023-05-10T02:24:28;94993.03;;;11.29;nan
51333;BME280;37417;48.118;11.734;2023-05-10T02:27:14;94987.63;;;11.24;nan
51333;BME280;37417;48.118;11.734;2023-05-10T02:30:01;94986.25;;;11.21;nan
51333;BME280;37417;48.118;11.734;2023-05-10T02:32:49;94990.25;;;11.24;nan
51333;BME280;37417;48.118;11.734;2023-05-10T02:35:35;94994.84;;;11.28;nan
51333;BME280;37417;48.118;11.734;2023-05-10T02:38:22;94989.00;;;11.26;nan
51333;BME280;37417;48.118;11.734;2023-05-10T02:41:09;94991.03;;;11.24;nan
51333;BME280;37417;48.118;11.734;2023-05-10T02:44:01;94986.56;;;11.31;nan
51333;BME280;37417;48.118;11.734;2023-05-10T02:46:48;94983.16;;;11.31;nan
51333;BME280;37417;48.118;11.734;2023-05-10T02:49:34;94991.44;;;11.28;nan
51333;BME280;37417;48.118;11.734;2023-05-10T02:52:26;94986.03;;;11.23;nan
51333;BME280;37417;48.118;11.734;2023-05-10T02:55:14;94985.81;;;11.24;nan
51333;BME280;37417;48.118;11.734;2023-05-10T02:58:01;94982.41;;;11.24;nan
51333;BME280;37417;48.118;11.734;2023-05-10T03:00:47;94990.03;;;11.25;nan
51333;BME280;37417;48.118;11.734;2023-05-10T03:03:33;94983.66;;;11.21;nan
51333;BME280;37417;48.118;11.734;2023-05-10T03:06:19;94989.44;;;11.23;nan
51333;BME280;37417;48.118;11.734;2023-05-10T03:09:04;94995.25;;;11.25;nan
51333;BME280;37417;48.118;11.734;2023-05-10T03:12:08;94988.38;;;11.31;nan
51333;BME280;37417;48.118;11.734;2023-05-10T03:15:17;94995.63;;;11.29;nan
51333;BME280;37417;48.118;11.734;2023-05-10T03:18:07;94992.59;;;11.32;nan
51333;BME280;37417;48.118;11.734;2023-05-10T03:20:59;94993.63;;;11.31;nan
51333;BME280;37417;48.118;11.734;2023-05-10T03:23:51;95002.88;;;11.27;nan
51333;BME280;37417;48.118;11.734;2023-05-10T03:26:43;95014.94;;;11.28;nan
51333;BME280;37417;48.118;11.734;2023-05-10T03:29:29;95012.16;;;11.23;nan
51333;BME280;37417;48.118;11.734;2023-05-10T03:32:16;95020.16;;;11.28;nan
51333;BME280;37417;48.118;11.734;2023-05-10T03:35:07;95014.31;;;11.26;nan
51333;BME280;37417;48.118;11.734;2023-05-10T03:37:53;95014.94;;;11.28;nan
51333;BME280;37417;48.118;11.734;2023-05-10T03:40:39;95018.34;;;11.28;nan
51333;BME280;37417;48.118;11.734;2023-05-10T03:43:24;95017.16;;;11.24;nan
51333;BME280;37417;48.118;11.734;2023-05-10T03:46:10;95019.75;;;11.24;nan
51333;BME280;37417;48.118;11.734;2023-05-10T03:48:56;95017.16;;;11.24;nan
51333;BME280;37417;48.118;11.734;2023-05-10T03:51:41;95026.19;;;11.28;nan
51333;BME280;37417;48.118;11.734;2023-05-10T03:54:27;95024.97;;;11.24;nan
51333;BME280;37417;48.118;11.734;2023-05-10T03:57:12;95025.56;;;11.26;nan
51333;BME280;37417;48.118;11.734;2023-05-10T03:59:58;95024.97;;;11.24;nan
51333;BME280;37417;48.118;11.734;2023-05-10T04:02:44;95024.97;;;11.24;nan
51333;BME280;37417;48.118;11.734;2023-05-10T04:05:29;95030.41;;;11.23;nan
51333;BME280;37417;48.118;11.734;2023-05-10T04:08:15;95028.59;;;11.23;nan
51333;BME280;37417;48.118;11.734;2023-05-10T04:11:09;95040.44;;;11.26;nan
51333;BME280;37417;48.118;11.734;2023-05-10T04:13:55;95038.44;;;11.28;nan
51333;BME280;37417;48.118;11.734;2023-05-10T04:16:40;95026.78;;;11.24;nan
51333;BME280;37417;48.118;11.734;2023-05-10T04:19:33;95039.22;;;11.28;nan
51333;BME280;37417;48.118;11.734;2023-05-10T04:22:18;95035.63;;;11.23;nan
51333;BME280;37417;48.118;11.734;2023-05-10T04:25:04;95041.22;;;11.26;nan
51333;BME280;37417;48.118;11.734;2023-05-10T04:27:51;95044.03;;;11.31;nan
51333;BME280;37417;48.118;11.734;2023-05-10T04:30:37;95042.03;;;11.33;nan
51333;BME280;37417;48.118;11.734;2023-05-10T04:33:22;95037.38;;;11.35;nan
51333;BME280;37417;48.118;11.734;2023-05-10T04:36:08;95046.44;;;11.26;nan
51333;BME280;37417;48.118;11.734;2023-05-10T04:38:54;95043.84;;;11.26;nan
51333;BME280;37417;48.118;11.734;2023-05-10T04:41:39;95046.44;;;11.26;nan
51333;BME280;37417;48.118;11.734;2023-05-10T04:44:25;95049.84;;;11.27;nan
51333;BME280;37417;48.118;11.734;2023-05-10T04:47:11;95049.06;;;11.26;nan
51333;BME280;37417;48.118;11.734;2023-05-10T04:49:58;95046.63;;;11.31;nan
51333;BME280;37417;48.118;11.734;2023-05-10T04:52:44;95047.25;;;11.33;nan
51333;BME280;37417;48.118;11.734;2023-05-10T04:55:30;95048.66;;;11.29;nan
51333;BME280;37417;48.118;11.734;2023-05-10T04:58:16;95053.31;;;11.27;nan
51333;BME280;37417;48.118;11.734;2023-05-10T05:01:05;95053.88;;;11.29;nan
51333;BME280;37417;48.118;11.734;2023-05-10T05:03:52;95056.06;;;11.32;nan
51333;BME280;37417;48.118;11.734;2023-05-10T05:06:38;95055.06;;;11.33;nan
51333;BME280;37417;48.118;11.734;2023-05-10T05:09:23;95053.13;;;11.22;nan
51333;BME280;37417;48.118;11.734;2023-05-10T05:12:09;95053.53;;;11.19;nan
51333;BME280;37417;48.118;11.734;2023-05-10T05:14:59;95058.38;;;11.16;nan
51333;BME280;37417;48.118;11.734;2023-05-10T05:17:44;95063.41;;;11.10;nan
51333;BME280;37417;48.118;11.734;2023-05-10T05:20:32;95058.00;;;11.05;nan
51333;BME280;37417;48.118;11.734;2023-05-10T05:23:18;95061.84;;;11.03;nan
51333;BME280;37417;48.118;11.734;2023-05-10T05:26:06;95062.84;;;11.02;nan
51333;BME280;37417;48.118;11.734;2023-05-10T05:28:51;95069.69;;;10.96;nan
51333;BME280;37417;48.118;11.734;2023-05-10T05:31:39;95083.59;;;10.83;nan
51333;BME280;37417;48.118;11.734;2023-05-10T05:34:25;95086.56;;;10.87;nan
51333;BME280;37417;48.118;11.734;2023-05-10T05:37:15;95081.38;;;10.80;nan
51333;BME280;37417;48.118;11.734;2023-05-10T05:40:01;95092.81;;;10.79;nan
51333;BME280;37417;48.118;11.734;2023-05-10T05:42:47;95095.44;;;10.79;nan
51333;BME280;37417;48.118;11.734;2023-05-10T05:45:32;95096.25;;;10.73;nan
51333;BME280;37417;48.118;11.734;2023-05-10T05:48:18;95099.09;;;10.58;nan
51333;BME280;37417;48.118;11.734;2023-05-10T05:51:04;95095.09;;;10.49;nan
51333;BME280;37417;48.118;11.734;2023-05-10T05:53:49;95114.34;;;10.28;nan
51333;BME280;37417;48.118;11.734;2023-05-10T05:56:35;95107.53;;;10.14;nan
51333;BME280;37417;48.118;11.734;2023-05-10T05:59:21;95124.41;;;10.25;nan
51333;BME280;37417;48.118;11.734;2023-05-10T06:02:09;95127.56;;;10.20;nan
51333;BME280;37417;48.118;11.734;2023-05-10T06:04:54;95117.53;;;10.17;nan
51333;BME280;37417;48.118;11.734;2023-05-10T06:07:40;95128.03;;;10.30;nan
51333;BME280;37417;48.118;11.734;2023-05-10T06:10:29;95135.63;;;10.25;nan
51333;BME280;37417;48.118;11.734;2023-05-10T06:13:15;95135.63;;;10.25;nan
51333;BME280;37417;48.118;11.734;2023-05-10T06:16:02;95138.81;;;10.34;nan
51333;BME280;37417;48.118;11.734;2023-05-10T06:18:48;95144.47;;;10.38;nan
51333;BME280;37417;48.118;11.734;2023-05-10T06:21:33;95147.06;;;10.44;nan
51333;BME280;37417;48.118;11.734;2023-05-10T06:24:19;95147.22;;;10.56;nan
51333;BME280;37417;48.118;11.734;2023-05-10T06:27:05;95158.88;;;10.60;nan
51333;BME280;37417;48.118;11.734;2023-05-10T06:29:51;95158.47;;;10.70;nan
51333;BME280;37417;48.118;11.734;2023-05-10T06:32:37;95159.25;;;10.83;nan
51333;BME280;37417;48.118;11.734;2023-05-10T06:35:22;95161.38;;;11.06;nan
51333;BME280;37417;48.118;11.734;2023-05-10T06:38:08;95165.03;;;10.99;nan
51333;BME280;37417;48.118;11.734;2023-05-10T06:40:54;95163.81;;;11.08;nan
51333;BME280;37417;48.118;11.734;2023-05-10T06:43:39;95168.03;;;11.09;nan
51333;BME280;37417;48.118;11.734;2023-05-10T06:46:26;95169.59;;;11.23;nan
51333;BME280;37417;48.118;11.734;2023-05-10T06:49:12;95169.72;;;11.42;nan
51333;BME280;37417;48.118;11.734;2023-05-10T06:51:58;95168.78;;;11.74;nan
51333;BME280;37417;48.118;11.734;2023-05-10T06:54:43;95177.84;;;11.65;nan
51333;BME280;37417;48.118;11.734;2023-05-10T06:57:30;95169.53;;;11.36;nan
51333;BME280;37417;48.118;11.734;2023-05-10T07:00:16;95157.00;;;11.52;nan
51333;BME280;37417;48.118;11.734;2023-05-10T07:03:02;95169.72;;;11.93;nan
51333;BME280;37417;48.118;11.734;2023-05-10T07:05:48;95167.03;;;12.31;nan
51333;BME280;37417;48.118;11.734;2023-05-10T07:08:34;95161.91;;;11.86;nan
51333;BME280;37417;48.118;11.734;2023-05-10T07:11:19;95160.94;;;11.74;nan
51333;BME280;37417;48.118;11.734;2023-05-10T07:14:05;95161.22;;;11.98;nan
51333;BME280;37417;48.118;11.734;2023-05-10T07:16:51;95151.94;;;12.02;nan
51333;BME280;37417;48.118;11.734;2023-05-10T07:19:36;95143.09;;;12.03;nan
51333;BME280;37417;48.118;11.734;2023-05-10T07:22:22;95141.19;;;11.85;nan
51333;BME280;37417;48.118;11.734;2023-05-10T07:25:08;95135.03;;;12.04;nan
51333;BME280;37417;48.118;11.734;2023-05-10T07:27:53;95140.09;;;12.31;nan
51333;BME280;37417;48.118;11.734;2023-05-10T07:30:39;95139.38;;;12.67;nan
51333;BME280;37417;48.118;11.734;2023-05-10T07:33:25;95133.84;;;12.57;nan
51333;BME280;37417;48.118;11.734;2023-05-10T07:36:11;95128.56;;;12.38;nan
51333;BME280;37417;48.118;11.734;2023-05-10T07:38:56;95114.97;;;12.48;nan
51333;BME280;37417;48.118;11.734;2023-05-10T07:41:42;95106.88;;;12.74;nan
51333;BME280;37417;48.118;11.734;2023-05-10T07:44:28;95107.53;;;13.07;nan
51333;BME280;37417;48.118;11.734;2023-05-10T07:47:14;95094.03;;;13.28;nan
51333;BME280;37417;48.118;11.734;2023-05-10T07:50:00;95089.59;;;13.47;nan
51333;BME280;37417;48.118;11.734;2023-05-10T07:52:45;95075.25;;;14.03;nan
51333;BME280;37417;48.118;11.734;2023-05-10T07:55:31;95065.66;;;13.97;nan
51333;BME280;37417;48.118;11.734;2023-05-10T07:58:17;95052.69;;;14.14;nan
51333;BME280;37417;48.118;11.734;2023-05-10T08:01:03;95039.13;;;14.17;nan
51333;BME280;37417;48.118;11.734;2023-05-10T08:03:49;95047.28;;;13.73;nan
51333;BME280;37417;48.118;11.734;2023-05-10T08:06:36;95045.44;;;13.14;nan
51333;BME280;37417;48.118;11.734;2023-05-10T08:09:21;95051.25;;;13.34;nan
51333;BME280;37417;48.118;11.734;2023-05-10T08:12:09;95052.56;;;13.25;nan
51333;BME280;37417;48.118;11.734;2023-05-10T08:14:54;95054.38;;;13.24;nan
51333;BME280;37417;48.118;11.734;2023-05-10T08:17:40;95057.06;;;12.99;nan
51333;BME280;37417;48.118;11.734;2023-05-10T08:20:26;95052.00;;;13.05;nan
51333;BME280;37417;48.118;11.734;2023-05-10T08:23:12;95059.13;;;13.34;nan
51333;BME280;37417;48.118;11.734;2023-05-10T08:25:59;95049.75;;;14.45;nan
51333;BME280;37417;48.118;11.734;2023-05-10T08:28:44;95045.19;;;15.44;nan
51333;BME280;37417;48.118;11.734;2023-05-10T08:31:30;95037.19;;;16.30;nan
51333;BME280;37417;48.118;11.734;2023-05-10T08:34:15;95039.63;;;15.41;nan
51333;BME280;37417;48.118;11.734;2023-05-10T08:37:01;95043.66;;;16.06;nan
51333;BME280;37417;48.118;11.734;2023-05-10T08:39:47;95037.63;;;16.77;nan
51333;BME280;37417;48.118;11.734;2023-05-10T08:42:34;95035.66;;;17.33;nan
51333;BME280;37417;48.118;11.734;2023-05-10T08:45:23;95042.59;;;18.26;nan
51333;BME280;37417;48.118;11.734;2023-05-10T08:48:10;95045.97;;;17.62;nan
51333;BME280;37417;48.118;11.734;2023-05-10T08:50:58;95043.28;;;18.90;nan
51333;BME280;37417;48.118;11.734;2023-05-10T08:53:45;95032.53;;;16.54;nan
51333;BME280;37417;48.118;11.734;2023-05-10T08:56:31;95045.88;;;15.97;nan
51333;BME280;37417;48.118;11.734;2023-05-10T08:59:17;95050.97;;;14.89;nan
51333;BME280;37417;48.118;11.734;2023-05-10T09:02:04;95044.69;;;15.02;nan
51333;BME280;37417;48.118;11.734;2023-05-10T09:04:50;95052.13;;;14.12;nan
51333;BME280;37417;48.118;11.734;2023-05-10T09:07:36;95049.03;;;13.91;nan
51333;BME280;37417;48.118;11.734;2023-05-10T09:10:22;95050.41;;;13.94;nan
51333;BME280;37417;48.118;11.734;2023-05-10T09:13:11;95049.38;;;14.42;nan
51333;BME280;37417;48.118;11.734;2023-05-10T09:15:57;95053.13;;;15.04;nan
51333;BME280;37417;48.118;11.734;2023-05-10T09:18:43;95047.69;;;15.23;nan
51333;BME280;37417;48.118;11.734;2023-05-10T09:21:29;95047.56;;;14.89;nan
51333;BME280;37417;48.118;11.734;2023-05-10T09:24:16;95060.59;;;14.72;nan
51333;BME280;37417;48.118;11.734;2023-05-10T09:27:02;95051.66;;;14.85;nan
51333;BME280;37417;48.118;11.734;2023-05-10T09:29:48;95052.22;;;14.87;nan
51333;BME280;37417;48.118;11.734;2023-05-10T09:32:41;95050.84;;;14.96;nan
51333;BME280;37417;48.118;11.734;2023-05-10T09:35:29;95053.56;;;14.49;nan
51333;BME280;37417;48.118;11.734;2023-05-10T09:38:15;95053.47;;;14.96;nan
51333;BME280;37417;48.118;11.734;2023-05-10T09:41:01;95053.06;;;15.28;nan
51333;BME280;37417;48.118;11.734;2023-05-10T09:43:48;95046.75;;;16.19;nan
51333;BME280;37417;48.118;11.734;2023-05-10T09:46:35;95050.31;;;17.73;nan
51333;BME280;37417;48.118;11.734;2023-05-10T09:49:21;95059.75;;;17.20;nan
51333;BME280;37417;48.118;11.734;2023-05-10T09:52:07;95046.91;;;15.96;nan
51333;BME280;37417;48.118;11.734;2023-05-10T09:54:54;95055.31;;;14.84;nan
51333;BME280;37417;48.118;11.734;2023-05-10T09:57:40;95046.09;;;14.34;nan
51333;BME280;37417;48.118;11.734;2023-05-10T10:00:26;95050.19;;;14.07;nan
51333;BME280;37417;48.118;11.734;2023-05-10T10:03:17;95051.75;;;13.96;nan
51333;BME280;37417;48.118;11.734;2023-05-10T10:06:03;95051.09;;;14.01;nan
51333;BME280;37417;48.118;11.734;2023-05-10T10:08:48;95052.94;;;14.24;nan
51333;BME280;37417;48.118;11.734;2023-05-10T10:11:35;95052.94;;;14.35;nan
51333;BME280;37417;48.118;11.734;2023-05-10T10:14:22;95048.38;;;14.66;nan
51333;BME280;37417;48.118;11.734;2023-05-10T10:17:09;95045.63;;;15.25;nan
51333;BME280;37417;48.118;11.734;2023-05-10T10:19:55;95038.91;;;15.45;nan
51333;BME280;37417;48.118;11.734;2023-05-10T10:22:42;95045.00;;;15.91;nan
51333;BME280;37417;48.118;11.734;2023-05-10T10:25:29;95043.31;;;16.52;nan
51333;BME280;37417;48.118;11.734;2023-05-10T10:28:23;95036.09;;;16.82;nan
51333;BME280;37417;48.118;11.734;2023-05-10T10:31:24;95051.66;;;18.40;nan
51333;BME280;37417;48.118;11.734;2023-05-10T10:34:30;95039.03;;;18.89;nan
51333;BME280;37417;48.118;11.734;2023-05-10T10:37:16;95041.81;;;19.20;nan
51333;BME280;37417;48.118;11.734;2023-05-10T10:43:22;95031.63;;;18.81;nan
51333;BME280;37417;48.118;11.734;2023-05-10T10:46:16;95034.25;;;18.07;nan
51333;BME280;37417;48.118;11.734;2023-05-10T10:49:09;95027.84;;;18.72;nan
51333;BME280;37417;48.118;11.734;2023-05-10T10:57:56;95030.56;;;18.82;nan
51333;BME280;37417;48.118;11.734;2023-05-10T11:00:45;95025.97;;;19.20;nan
51333;BME280;37417;48.118;11.734;2023-05-10T11:03:31;95032.94;;;18.84;nan
51333;BME280;37417;48.118;11.734;2023-05-10T11:06:28;95029.41;;;19.20;nan
51333;BME280;37417;48.118;11.734;2023-05-10T11:09:14;95031.47;;;19.18;nan
51333;BME280;37417;48.118;11.734;2023-05-10T11:12:08;95030.66;;;19.03;nan
51333;BME280;37417;48.118;11.734;2023-05-10T11:14:57;95024.28;;;18.93;nan
51333;BME280;37417;48.118;11.734;2023-05-10T11:17:43;95025.09;;;18.57;nan
51333;BME280;37417;48.118;11.734;2023-05-10T11:20:28;95024.06;;;18.21;nan
51333;BME280;37417;48.118;11.734;2023-05-10T11:23:28;95025.72;;;17.41;nan
51333;BME280;37417;48.118;11.734;2023-05-10T11:26:14;95022.34;;;16.41;nan
51333;BME280;37417;48.118;11.734;2023-05-10T11:29:00;95033.13;;;16.22;nan
51333;BME280;37417;48.118;11.734;2023-05-10T11:31:47;95029.03;;;15.64;nan
51333;BME280;37417;48.118;11.734;2023-05-10T11:34:33;95030.56;;;15.49;nan
51333;BME280;37417;48.118;11.734;2023-05-10T11:37:19;95034.84;;;15.38;nan
51333;BME280;37417;48.118;11.734;2023-05-10T11:40:05;95031.47;;;14.85;nan
51333;BME280;37417;48.118;11.734;2023-05-10T11:42:51;95030.00;;;14.54;nan
51333;BME280;37417;48.118;11.734;2023-05-10T11:45:37;95031.94;;;14.12;nan
51333;BME280;37417;48.118;11.734;2023-05-10T11:48:22;95036.16;;;14.01;nan
51333;BME280;37417;48.118;11.734;2023-05-10T11:51:10;95035.16;;;13.61;nan
51333;BME280;37417;48.118;11.734;2023-05-10T11:53:56;95057.72;;;13.32;nan
51333;BME280;37417;48.118;11.734;2023-05-10T11:56:42;95074.47;;;12.94;nan
51333;BME280;37417;48.118;11.734;2023-05-10T11:59:28;95091.31;;;12.43;nan
51333;BME280;37417;48.118;11.734;2023-05-10T12:02:14;95100.00;;;11.80;nan
51333;BME280;37417;48.118;11.734;2023-05-10T12:05:00;95113.91;;;11.36;nan
51333;BME280;37417;48.118;11.734;2023-05-10T12:07:46;95130.34;;;10.78;nan
51333;BME280;37417;48.118;11.734;2023-05-10T12:10:34;95148.06;;;10.50;nan
51333;BME280;37417;48.118;11.734;2023-05-10T12:13:20;95181.75;;;10.32;nan
51333;BME280;37417;48.118;11.734;2023-05-10T12:16:20;95210.19;;;10.20;nan
51333;BME280;37417;48.118;11.734;2023-05-10T12:19:06;61376.22;;;-141.85;100.00
51333;BME280;37417;48.118;11.734;2023-05-10T12:21:51;61376.22;;;-141.85;100.00
51333;BME280;37417;48.118;11.734;2023-05-10T12:24:37;61376.22;;;-141.85;100.00
51333;BME280;37417;48.118;11.734;2023-05-10T12:27:31;95224.81;;;10.21;nan
51333;BME280;37417;48.118;11.734;2023-05-10T12:30:25;61376.22;;;-141.85;100.00
51333;BME280;37417;48.118;11.734;2023-05-10T12:33:12;61376.22;;;10.21;100.00
51333;BME280;37417;48.118;11.734;2023-05-10T12:35:59;61376.22;;;-141.85;100.00
51333;BME280;37417;48.118;11.734;2023-05-10T12:38:45;61376.22;;;-141.85;100.00
51333;BME280;37417;48.118;11.734;2023-05-10T12:41:38;61376.22;;;-141.85;100.00
51333;BME280;37417;48.118;11.734;2023-05-10T12:44:26;61376.22;;;-141.85;100.00
51333;BME280;37417;48.118;11.734;2023-05-10T12:47:20;61376.22;;;-141.85;100.00
51333;BME280;37417;48.118;11.734;2023-05-10T12:50:06;61376.22;;;-141.85;100.00
51333;BME280;37417;48.118;11.734;2023-05-10T12:52:52;61376.22;;;-141.85;100.00
51333;BME280;37417;48.118;11.734;2023-05-10T12:55:44;61376.22;;;-141.85;100.00
51333;BME280;37417;48.118;11.734;2023-05-10T12:58:29;61376.22;;;-141.85;100.00
51333;BME280;37417;48.118;11.734;2023-05-10T13:01:15;61376.22;;;-141.85;100.00
51333;BME280;37417;48.118;11.734;2023-05-10T13:04:01;61376.22;;;-141.85;100.00
51333;BME280;37417;48.118;11.734;2023-05-10T13:07:45;61376.22;;;-141.85;100.00
51333;BME280;37417;48.118;11.734;2023-05-10T13:11:29;61376.22;;;-141.85;100.00
51333;BME280;37417;48.118;11.734;2023-05-10T13:14:15;61376.22;;;-141.85;100.00
51333;BME280;37417;48.118;11.734;2023-05-10T13:17:01;95281.88;;;10.90;nan
51333;BME280;37417;48.118;11.734;2023-05-10T13:19:46;61376.22;;;-141.85;100.00
51333;BME280;37417;48.118;11.734;2023-05-10T13:22:32;61376.22;;;-141.85;100.00
51333;BME280;37417;48.118;11.734;2023-05-10T13:25:17;61376.22;;;-141.85;100.00
51333;BME280;37417;48.118;11.734;2023-05-10T13:28:03;61376.22;;;-141.85;100.00
51333;BME280;37417;48.118;11.734;2023-05-10T13:30:49;61376.22;;;-141.85;100.00
51333;BME280;37417;48.118;11.734;2023-05-10T13:33:34;61376.22;;;-141.85;100.00
51333;BME280;37417;48.118;11.734;2023-05-10T13:36:20;61376.22;;;-141.85;100.00
51333;BME280;37417;48.118;11.734;2023-05-10T13:39:06;61376.22;;;-141.85;100.00
51333;BME280;37417;48.118;11.734;2023-05-10T13:41:51;61376.22;;;-141.85;100.00
51333;BME280;37417;48.118;11.734;2023-05-10T13:44:37;61376.22;;;-141.85;100.00
51333;BME280;37417;48.118;11.734;2023-05-10T13:47:24;61376.22;;;-141.85;100.00
51333;BME280;37417;48.118;11.734;2023-05-10T13:50:09;61376.22;;;-141.85;100.00
51333;BME280;37417;48.118;11.734;2023-05-10T13:52:55;95234.97;;;11.55;nan
51333;BME280;37417;48.118;11.734;2023-05-10T13:55:41;95233.97;;;11.56;nan
51333;BME280;37417;48.118;11.734;2023-05-10T13:58:26;95220.94;;;11.49;nan
51333;BME280;37417;48.118;11.734;2023-05-10T14:01:12;95241.94;;;11.74;nan
51333;BME280;37417;48.118;11.734;2023-05-10T14:03:58;95222.44;;;11.70;nan
51333;BME280;37417;48.118;11.734;2023-05-10T14:06:43;95216.59;;;11.81;nan
51333;BME280;37417;48.118;11.734;2023-05-10T14:09:29;95209.59;;;11.69;nan
51333;BME280;37417;48.118;11.734;2023-05-10T14:12:15;95211.41;;;11.68;nan
51333;BME280;37417;48.118;11.734;2023-05-10T14:15:01;95206.25;;;11.55;nan
51333;BME280;37417;48.118;11.734;2023-05-10T14:17:47;95202.41;;;11.57;nan
51333;BME280;37417;48.118;11.734;2023-05-10T14:20:33;95200.97;;;11.68;nan
51333;BME280;37417;48.118;11.734;2023-05-10T14:23:19;95210.00;;;11.72;nan
51333;BME280;37417;48.118;11.734;2023-05-10T14:26:09;95206.81;;;11.57;nan
51333;BME280;37417;48.118;11.734;2023-05-10T14:28:56;95218.47;;;11.61;nan
51333;BME280;37417;48.118;11.734;2023-05-10T14:31:41;95212.63;;;11.59;nan
51333;BME280;37417;48.118;11.734;2023-05-10T14:34:27;95212.91;;;11.37;nan
51333;BME280;37417;48.118;11.734;2023-05-10T14:37:13;95200.81;;;11.50;nan
51333;BME280;37417;48.118;11.734;2023-05-10T14:40:00;95202.84;;;11.54;nan
51333;BME280;37417;48.118;11.734;2023-05-10T14:42:46;95201.06;;;11.42;nan
51333;BME280;37417;48.118;11.734;2023-05-10T14:45:31;95201.06;;;11.42;nan
51333;BME280;37417;48.118;11.734;2023-05-10T14:48:18;95193.84;;;11.37;nan
51333;BME280;37417;48.118;11.734;2023-05-10T14:51:03;95206.91;;;11.30;nan
51333;BME280;37417;48.118;11.734;2023-05-10T14:53:49;95211.72;;;11.40;nan
51333;BME280;37417;48.118;11.734;2023-05-10T14:56:34;95215.72;;;11.43;nan
51333;BME280;37417;48.118;11.734;2023-05-10T14:59:22;95220.41;;;11.14;nan
51333;BME280;37417;48.118;11.734;2023-05-10T15:02:08;95232.28;;;11.03;nan
51333;BME280;37417;48.118;11.734;2023-05-10T15:04:54;95230.47;;;11.04;nan
51333;BME280;37417;48.118;11.734;2023-05-10T15:07:40;95229.50;;;10.72;nan